sensor_id;sensor_type;location;lat;lon;timestamp;P1;durP1;ratioP1;P2;durP2;ratioP2
47545;SDS011;50104;52.002;4.688;2023-02-03T00:01:13;9.60;;;2.58;;
47545;SDS011;50104;52.002;4.688;2023-02-03T00:06:14;14.85;;;2.97;;
47545;SDS011;50104;52.002;4.688;2023-02-03T00:11:15;13.70;;;2.90;;
47545;SDS011;50104;52.002;4.688;2023-02-03T00:16:15;14.20;;;3.00;;
47545;SDS011;50104;52.002;4.688;2023-02-03T00:21:16;11.35;;;2.38;;
47545;SDS011;50104;52.002;4.688;2023-02-03T00:26:17;8.90;;;2.20;;
47545;SDS011;50104;52.002;4.688;2023-02-03T00:31:22;9.57;;;2.28;;
47545;SDS011;50104;52.002;4.688;2023-02-03T00:36:24;13.38;;;3.33;;
47545;SDS011;50104;52.002;4.688;2023-02-03T00:41:27;19.73;;;4.00;;
47545;SDS011;50104;52.002;4.688;2023-02-03T00:46:30;7.15;;;2.03;;
47545;SDS011;50104;52.002;4.688;2023-02-03T00:51:31;10.57;;;2.15;;
47545;SDS011;50104;52.002;4.688;2023-02-03T00:56:33;13.45;;;2.80;;
47545;SDS011;50104;52.002;4.688;2023-02-03T01:01:34;12.20;;;2.72;;
47545;SDS011;50104;52.002;4.688;2023-02-03T01:06:35;9.70;;;2.05;;
47545;SDS011;50104;52.002;4.688;2023-02-03T01:11:36;9.75;;;2.20;;
47545;SDS011;50104;52.002;4.688;2023-02-03T01:16:37;7.95;;;2.00;;
47545;SDS011;50104;52.002;4.688;2023-02-03T01:21:38;6.72;;;2.47;;
47545;SDS011;50104;52.002;4.688;2023-02-03T01:26:39;3.38;;;1.85;;
47545;SDS011;50104;52.002;4.688;2023-02-03T01:31:41;8.18;;;2.17;;
47545;SDS011;50104;52.002;4.688;2023-02-03T01:36:41;15.00;;;2.85;;
47545;SDS011;50104;52.002;4.688;2023-02-03T01:41:42;11.63;;;2.92;;
47545;SDS011;50104;52.002;4.688;2023-02-03T01:46:45;11.65;;;2.30;;
47545;SDS011;50104;52.002;4.688;2023-02-03T01:51:48;9.27;;;2.33;;
47545;SDS011;50104;52.002;4.688;2023-02-03T01:56:51;10.35;;;2.03;;
47545;SDS011;50104;52.002;4.688;2023-02-03T02:01:56;10.02;;;2.38;;
47545;SDS011;50104;52.002;4.688;2023-02-03T02:06:58;13.43;;;2.20;;
47545;SDS011;50104;52.002;4.688;2023-02-03T02:11:59;9.15;;;1.80;;
47545;SDS011;50104;52.002;4.688;2023-02-03T02:17:02;5.30;;;2.13;;
47545;SDS011;50104;52.002;4.688;2023-02-03T02:44:34;7.00;;;1.92;;
47545;SDS011;50104;52.002;4.688;2023-02-03T02:54:47;9.20;;;2.05;;
47545;SDS011;50104;52.002;4.688;2023-02-03T02:59:52;10.45;;;2.30;;
47545;SDS011;50104;52.002;4.688;2023-02-03T03:04:53;12.38;;;1.90;;
47545;SDS011;50104;52.002;4.688;2023-02-03T03:09:56;5.82;;;1.88;;
47545;SDS011;50104;52.002;4.688;2023-02-03T03:15:03;4.35;;;1.98;;
47545;SDS011;50104;52.002;4.688;2023-02-03T03:20:11;10.18;;;2.83;;
47545;SDS011;50104;52.002;4.688;2023-02-03T03:25:20;8.65;;;1.80;;
47545;SDS011;50104;52.002;4.688;2023-02-03T03:30:31;3.03;;;1.33;;
47545;SDS011;50104;52.002;4.688;2023-02-03T03:35:37;6.85;;;1.50;;
47545;SDS011;50104;52.002;4.688;2023-02-03T03:40:53;9.68;;;2.08;;
47545;SDS011;50104;52.002;4.688;2023-02-03T03:46:13;9.35;;;1.88;;
47545;SDS011;50104;52.002;4.688;2023-02-03T03:51:47;3.60;;;1.75;;
47545;SDS011;50104;52.002;4.688;2023-02-03T03:56:56;7.05;;;1.63;;
47545;SDS011;50104;52.002;4.688;2023-02-03T04:02:15;7.03;;;1.73;;
47545;SDS011;50104;52.002;4.688;2023-02-03T04:07:19;11.70;;;1.92;;
47545;SDS011;50104;52.002;4.688;2023-02-03T04:12:22;6.50;;;2.10;;
47545;SDS011;50104;52.002;4.688;2023-02-03T04:17:23;8.07;;;1.42;;
47545;SDS011;50104;52.002;4.688;2023-02-03T04:22:24;10.15;;;3.42;;
47545;SDS011;50104;52.002;4.688;2023-02-03T04:27:25;7.35;;;1.40;;
47545;SDS011;50104;52.002;4.688;2023-02-03T04:32:26;10.07;;;1.83;;
47545;SDS011;50104;52.002;4.688;2023-02-03T04:37:27;10.95;;;1.90;;
47545;SDS011;50104;52.002;4.688;2023-02-03T04:42:28;8.90;;;2.22;;
47545;SDS011;50104;52.002;4.688;2023-02-03T04:47:29;7.60;;;2.25;;
47545;SDS011;50104;52.002;4.688;2023-02-03T04:52:30;5.00;;;1.42;;
47545;SDS011;50104;52.002;4.688;2023-02-03T04:57:31;4.47;;;1.77;;
47545;SDS011;50104;52.002;4.688;2023-02-03T05:02:32;6.38;;;1.48;;
47545;SDS011;50104;52.002;4.688;2023-02-03T05:07:33;6.43;;;1.92;;
47545;SDS011;50104;52.002;4.688;2023-02-03T05:12:33;8.55;;;1.70;;
47545;SDS011;50104;52.002;4.688;2023-02-03T05:17:34;6.70;;;1.25;;
47545;SDS011;50104;52.002;4.688;2023-02-03T05:22:38;7.78;;;1.52;;
47545;SDS011;50104;52.002;4.688;2023-02-03T05:27:39;6.57;;;2.30;;
47545;SDS011;50104;52.002;4.688;2023-02-03T05:32:40;6.43;;;1.92;;
47545;SDS011;50104;52.002;4.688;2023-02-03T05:37:44;14.88;;;4.00;;
47545;SDS011;50104;52.002;4.688;2023-02-03T05:42:48;4.18;;;2.03;;
47545;SDS011;50104;52.002;4.688;2023-02-03T05:47:49;8.00;;;1.80;;
47545;SDS011;50104;52.002;4.688;2023-02-03T05:52:50;11.32;;;2.00;;
47545;SDS011;50104;52.002;4.688;2023-02-03T05:57:51;7.40;;;1.98;;
47545;SDS011;50104;52.002;4.688;2023-02-03T06:02:52;8.02;;;1.83;;
47545;SDS011;50104;52.002;4.688;2023-02-03T06:07:59;8.03;;;2.27;;
47545;SDS011;50104;52.002;4.688;2023-02-03T06:13:10;8.45;;;2.42;;
47545;SDS011;50104;52.002;4.688;2023-02-03T06:18:13;9.05;;;1.90;;
47545;SDS011;50104;52.002;4.688;2023-02-03T06:23:14;8.30;;;1.75;;
47545;SDS011;50104;52.002;4.688;2023-02-03T06:28:16;12.80;;;1.65;;
47545;SDS011;50104;52.002;4.688;2023-02-03T06:33:18;7.85;;;1.42;;
47545;SDS011;50104;52.002;4.688;2023-02-03T06:38:19;8.35;;;2.90;;
47545;SDS011;50104;52.002;4.688;2023-02-03T06:43:20;9.82;;;2.13;;
47545;SDS011;50104;52.002;4.688;2023-02-03T06:48:21;6.50;;;1.30;;
47545;SDS011;50104;52.002;4.688;2023-02-03T06:53:22;4.90;;;1.40;;
47545;SDS011;50104;52.002;4.688;2023-02-03T06:58:23;9.88;;;1.85;;
47545;SDS011;50104;52.002;4.688;2023-02-03T07:03:24;11.73;;;2.05;;
47545;SDS011;50104;52.002;4.688;2023-02-03T07:08:25;10.73;;;1.77;;
47545;SDS011;50104;52.002;4.688;2023-02-03T07:13:26;8.68;;;1.45;;
47545;SDS011;50104;52.002;4.688;2023-02-03T07:18:26;10.43;;;1.88;;
47545;SDS011;50104;52.002;4.688;2023-02-03T07:23:29;8.45;;;1.85;;
47545;SDS011;50104;52.002;4.688;2023-02-03T07:28:31;12.52;;;2.30;;
47545;SDS011;50104;52.002;4.688;2023-02-03T07:33:33;12.13;;;2.28;;
47545;SDS011;50104;52.002;4.688;2023-02-03T07:38:34;10.30;;;1.95;;
47545;SDS011;50104;52.002;4.688;2023-02-03T07:43:37;7.70;;;1.73;;
47545;SDS011;50104;52.002;4.688;2023-02-03T07:48:38;8.60;;;3.22;;
47545;SDS011;50104;52.002;4.688;2023-02-03T07:53:39;8.43;;;2.22;;
47545;SDS011;50104;52.002;4.688;2023-02-03T07:58:40;14.25;;;1.70;;
47545;SDS011;50104;52.002;4.688;2023-02-03T08:03:41;4.70;;;1.90;;
47545;SDS011;50104;52.002;4.688;2023-02-03T08:08:42;12.75;;;2.17;;
47545;SDS011;50104;52.002;4.688;2023-02-03T08:13:44;6.55;;;1.52;;
47545;SDS011;50104;52.002;4.688;2023-02-03T08:18:44;6.38;;;1.75;;
47545;SDS011;50104;52.002;4.688;2023-02-03T08:23:45;6.43;;;1.90;;
47545;SDS011;50104;52.002;4.688;2023-02-03T08:28:49;9.70;;;2.42;;
47545;SDS011;50104;52.002;4.688;2023-02-03T08:33:50;15.70;;;1.95;;
47545;SDS011;50104;52.002;4.688;2023-02-03T08:38:51;10.07;;;1.98;;
47545;SDS011;50104;52.002;4.688;2023-02-03T08:43:51;7.10;;;1.70;;
47545;SDS011;50104;52.002;4.688;2023-02-03T08:48:53;7.53;;;1.98;;
47545;SDS011;50104;52.002;4.688;2023-02-03T08:53:55;6.72;;;1.83;;
47545;SDS011;50104;52.002;4.688;2023-02-03T08:58:56;7.07;;;1.80;;
47545;SDS011;50104;52.002;4.688;2023-02-03T09:03:57;17.95;;;3.15;;
47545;SDS011;50104;52.002;4.688;2023-02-03T09:09:00;6.45;;;1.52;;
47545;SDS011;50104;52.002;4.688;2023-02-03T09:14:01;9.13;;;1.63;;
47545;SDS011;50104;52.002;4.688;2023-02-03T09:19:02;5.07;;;1.38;;
47545;SDS011;50104;52.002;4.688;2023-02-03T09:24:03;11.68;;;1.77;;
47545;SDS011;50104;52.002;4.688;2023-02-03T09:29:04;9.55;;;1.88;;
47545;SDS011;50104;52.002;4.688;2023-02-03T09:34:06;7.88;;;2.92;;
47545;SDS011;50104;52.002;4.688;2023-02-03T09:39:07;3.42;;;1.27;;
47545;SDS011;50104;52.002;4.688;2023-02-03T09:59:58;12.20;;;1.95;;
47545;SDS011;50104;52.002;4.688;2023-02-03T10:05:05;9.27;;;1.67;;
47545;SDS011;50104;52.002;4.688;2023-02-03T10:15:59;8.00;;;2.53;;
47545;SDS011;50104;52.002;4.688;2023-02-03T10:21:12;4.47;;;1.43;;
47545;SDS011;50104;52.002;4.688;2023-02-03T10:26:40;7.68;;;1.77;;
47545;SDS011;50104;52.002;4.688;2023-02-03T10:31:41;3.65;;;1.70;;
47545;SDS011;50104;52.002;4.688;2023-02-03T10:41:58;5.75;;;1.63;;
47545;SDS011;50104;52.002;4.688;2023-02-03T10:47:00;6.90;;;1.73;;
47545;SDS011;50104;52.002;4.688;2023-02-03T10:52:01;8.48;;;2.17;;
47545;SDS011;50104;52.002;4.688;2023-02-03T10:57:05;7.95;;;2.25;;
47545;SDS011;50104;52.002;4.688;2023-02-03T11:02:24;6.47;;;1.42;;
47545;SDS011;50104;52.002;4.688;2023-02-03T11:07:28;6.32;;;1.90;;
47545;SDS011;50104;52.002;4.688;2023-02-03T11:12:29;4.93;;;1.75;;
47545;SDS011;50104;52.002;4.688;2023-02-03T11:17:30;5.97;;;1.42;;
47545;SDS011;50104;52.002;4.688;2023-02-03T11:22:36;2.60;;;1.60;;
47545;SDS011;50104;52.002;4.688;2023-02-03T11:27:39;4.10;;;1.60;;
47545;SDS011;50104;52.002;4.688;2023-02-03T11:32:40;4.32;;;1.35;;
47545;SDS011;50104;52.002;4.688;2023-02-03T11:37:43;7.85;;;1.70;;
47545;SDS011;50104;52.002;4.688;2023-02-03T11:47:54;9.52;;;1.48;;
47545;SDS011;50104;52.002;4.688;2023-02-03T12:21:21;4.22;;;1.90;;
47545;SDS011;50104;52.002;4.688;2023-02-03T12:26:45;4.35;;;1.95;;
47545;SDS011;50104;52.002;4.688;2023-02-03T12:37:15;5.65;;;1.67;;
47545;SDS011;50104;52.002;4.688;2023-02-03T12:52:53;3.78;;;1.58;;
47545;SDS011;50104;52.002;4.688;2023-02-03T13:03:19;7.20;;;1.98;;
47545;SDS011;50104;52.002;4.688;2023-02-03T13:14:27;8.40;;;1.50;;
47545;SDS011;50104;52.002;4.688;2023-02-03T13:19:38;3.88;;;1.95;;
47545;SDS011;50104;52.002;4.688;2023-02-03T13:24:46;7.03;;;1.63;;
47545;SDS011;50104;52.002;4.688;2023-02-03T13:41:26;3.28;;;1.63;;
47545;SDS011;50104;52.002;4.688;2023-02-03T13:46:49;4.25;;;2.05;;
47545;SDS011;50104;52.002;4.688;2023-02-03T13:51:51;6.80;;;2.30;;
47545;SDS011;50104;52.002;4.688;2023-02-03T13:56:59;6.35;;;1.92;;
47545;SDS011;50104;52.002;4.688;2023-02-03T14:07:32;7.35;;;2.85;;
47545;SDS011;50104;52.002;4.688;2023-02-03T14:12:37;7.25;;;1.95;;
47545;SDS011;50104;52.002;4.688;2023-02-03T14:17:57;4.72;;;2.45;;
47545;SDS011;50104;52.002;4.688;2023-02-03T14:23:37;6.93;;;2.25;;
47545;SDS011;50104;52.002;4.688;2023-02-03T14:28:44;9.68;;;1.92;;
47545;SDS011;50104;52.002;4.688;2023-02-03T14:38:47;5.97;;;1.45;;
47545;SDS011;50104;52.002;4.688;2023-02-03T14:43:50;6.47;;;1.75;;
47545;SDS011;50104;52.002;4.688;2023-02-03T14:49:34;12.55;;;2.45;;
47545;SDS011;50104;52.002;4.688;2023-02-03T15:00:40;9.18;;;2.30;;
47545;SDS011;50104;52.002;4.688;2023-02-03T15:06:01;5.43;;;2.00;;
47545;SDS011;50104;52.002;4.688;2023-02-03T15:16:43;7.90;;;2.28;;
47545;SDS011;50104;52.002;4.688;2023-02-03T15:21:45;8.02;;;2.55;;
47545;SDS011;50104;52.002;4.688;2023-02-03T15:26:47;6.45;;;2.35;;
47545;SDS011;50104;52.002;4.688;2023-02-03T15:31:53;10.27;;;2.28;;
47545;SDS011;50104;52.002;4.688;2023-02-03T15:37:14;12.30;;;2.55;;
47545;SDS011;50104;52.002;4.688;2023-02-03T15:48:27;10.88;;;2.83;;
47545;SDS011;50104;52.002;4.688;2023-02-03T15:53:32;9.73;;;2.47;;
47545;SDS011;50104;52.002;4.688;2023-02-03T15:58:48;16.55;;;3.05;;
47545;SDS011;50104;52.002;4.688;2023-02-03T16:03:50;4.25;;;1.77;;
47545;SDS011;50104;52.002;4.688;2023-02-03T16:08:53;9.68;;;2.65;;
47545;SDS011;50104;52.002;4.688;2023-02-03T16:13:55;13.13;;;2.40;;
47545;SDS011;50104;52.002;4.688;2023-02-03T16:19:12;9.63;;;2.83;;
47545;SDS011;50104;52.002;4.688;2023-02-03T16:29:44;12.15;;;2.50;;
47545;SDS011;50104;52.002;4.688;2023-02-03T16:35:06;11.15;;;2.65;;
47545;SDS011;50104;52.002;4.688;2023-02-03T16:40:27;8.50;;;2.28;;
47545;SDS011;50104;52.002;4.688;2023-02-03T16:45:54;10.63;;;2.22;;
47545;SDS011;50104;52.002;4.688;2023-02-03T16:51:15;5.60;;;1.90;;
47545;SDS011;50104;52.002;4.688;2023-02-03T16:56:16;13.02;;;2.60;;
47545;SDS011;50104;52.002;4.688;2023-02-03T17:01:18;15.75;;;2.90;;
47545;SDS011;50104;52.002;4.688;2023-02-03T17:06:19;13.73;;;2.05;;
47545;SDS011;50104;52.002;4.688;2023-02-03T17:11:20;8.20;;;2.28;;
47545;SDS011;50104;52.002;4.688;2023-02-03T17:16:23;11.80;;;2.42;;
47545;SDS011;50104;52.002;4.688;2023-02-03T17:21:27;11.32;;;2.10;;
47545;SDS011;50104;52.002;4.688;2023-02-03T17:26:28;9.77;;;2.35;;
47545;SDS011;50104;52.002;4.688;2023-02-03T17:31:29;8.30;;;1.90;;
47545;SDS011;50104;52.002;4.688;2023-02-03T17:36:31;15.68;;;2.33;;
47545;SDS011;50104;52.002;4.688;2023-02-03T17:41:32;14.88;;;2.63;;
47545;SDS011;50104;52.002;4.688;2023-02-03T17:46:33;11.32;;;2.90;;
47545;SDS011;50104;52.002;4.688;2023-02-03T17:51:34;10.65;;;2.40;;
47545;SDS011;50104;52.002;4.688;2023-02-03T17:56:34;14.07;;;2.53;;
47545;SDS011;50104;52.002;4.688;2023-02-03T18:01:35;11.18;;;2.47;;
47545;SDS011;50104;52.002;4.688;2023-02-03T18:06:37;11.98;;;2.53;;
47545;SDS011;50104;52.002;4.688;2023-02-03T18:11:38;8.15;;;2.30;;
47545;SDS011;50104;52.002;4.688;2023-02-03T18:16:39;11.60;;;2.22;;
47545;SDS011;50104;52.002;4.688;2023-02-03T18:21:41;13.98;;;2.65;;
47545;SDS011;50104;52.002;4.688;2023-02-03T18:26:49;13.80;;;2.70;;
47545;SDS011;50104;52.002;4.688;2023-02-03T18:31:51;10.32;;;2.50;;
47545;SDS011;50104;52.002;4.688;2023-02-03T18:36:52;11.93;;;2.78;;
47545;SDS011;50104;52.002;4.688;2023-02-03T18:41:53;13.25;;;2.45;;
47545;SDS011;50104;52.002;4.688;2023-02-03T18:46:54;13.60;;;3.42;;
47545;SDS011;50104;52.002;4.688;2023-02-03T18:51:56;18.10;;;3.22;;
47545;SDS011;50104;52.002;4.688;2023-02-03T18:56:57;11.10;;;2.33;;
47545;SDS011;50104;52.002;4.688;2023-02-03T19:01:58;13.88;;;2.85;;
47545;SDS011;50104;52.002;4.688;2023-02-03T19:12:25;11.63;;;3.25;;
47545;SDS011;50104;52.002;4.688;2023-02-03T19:17:26;12.73;;;2.75;;
47545;SDS011;50104;52.002;4.688;2023-02-03T19:22:28;6.60;;;2.03;;
47545;SDS011;50104;52.002;4.688;2023-02-03T19:27:29;6.95;;;1.85;;
47545;SDS011;50104;52.002;4.688;2023-02-03T19:32:30;11.25;;;2.45;;
47545;SDS011;50104;52.002;4.688;2023-02-03T19:37:31;10.88;;;2.70;;
47545;SDS011;50104;52.002;4.688;2023-02-03T19:42:32;11.93;;;3.03;;
47545;SDS011;50104;52.002;4.688;2023-02-03T19:47:33;16.23;;;2.90;;
47545;SDS011;50104;52.002;4.688;2023-02-03T19:52:33;7.78;;;2.03;;
47545;SDS011;50104;52.002;4.688;2023-02-03T19:57:34;17.85;;;3.13;;
47545;SDS011;50104;52.002;4.688;2023-02-03T20:02:36;18.73;;;2.55;;
47545;SDS011;50104;52.002;4.688;2023-02-03T20:07:37;13.95;;;2.50;;
47545;SDS011;50104;52.002;4.688;2023-02-03T20:12:38;10.82;;;1.95;;
47545;SDS011;50104;52.002;4.688;2023-02-03T20:17:39;11.38;;;2.80;;
47545;SDS011;50104;52.002;4.688;2023-02-03T20:22:41;22.17;;;3.33;;
47545;SDS011;50104;52.002;4.688;2023-02-03T20:27:42;20.83;;;4.45;;
47545;SDS011;50104;52.002;4.688;2023-02-03T20:32:43;16.77;;;2.63;;
47545;SDS011;50104;52.002;4.688;2023-02-03T20:37:44;13.35;;;2.70;;
47545;SDS011;50104;52.002;4.688;2023-02-03T20:42:45;18.70;;;2.85;;
47545;SDS011;50104;52.002;4.688;2023-02-03T20:47:46;11.15;;;2.17;;
47545;SDS011;50104;52.002;4.688;2023-02-03T20:52:48;15.18;;;2.45;;
47545;SDS011;50104;52.002;4.688;2023-02-03T20:57:51;15.73;;;2.53;;
47545;SDS011;50104;52.002;4.688;2023-02-03T21:02:54;18.58;;;3.42;;
47545;SDS011;50104;52.002;4.688;2023-02-03T21:08:18;22.75;;;3.28;;
47545;SDS011;50104;52.002;4.688;2023-02-03T21:13:20;23.60;;;3.13;;
47545;SDS011;50104;52.002;4.688;2023-02-03T21:18:28;18.50;;;2.38;;
47545;SDS011;50104;52.002;4.688;2023-02-03T21:24:12;16.73;;;2.50;;
47545;SDS011;50104;52.002;4.688;2023-02-03T21:29:28;16.42;;;2.42;;
47545;SDS011;50104;52.002;4.688;2023-02-03T21:34:33;15.50;;;3.30;;
47545;SDS011;50104;52.002;4.688;2023-02-03T21:39:34;13.27;;;2.58;;
47545;SDS011;50104;52.002;4.688;2023-02-03T21:44:36;24.40;;;3.85;;
47545;SDS011;50104;52.002;4.688;2023-02-03T21:49:37;17.27;;;3.00;;
47545;SDS011;50104;52.002;4.688;2023-02-03T21:54:39;16.65;;;3.97;;
47545;SDS011;50104;52.002;4.688;2023-02-03T21:59:43;11.90;;;2.80;;
47545;SDS011;50104;52.002;4.688;2023-02-03T22:04:48;15.32;;;4.07;;
47545;SDS011;50104;52.002;4.688;2023-02-03T22:09:49;18.88;;;3.42;;
47545;SDS011;50104;52.002;4.688;2023-02-03T22:14:50;19.27;;;3.10;;
47545;SDS011;50104;52.002;4.688;2023-02-03T22:19:51;19.00;;;2.90;;
47545;SDS011;50104;52.002;4.688;2023-02-03T22:24:52;15.90;;;3.15;;
47545;SDS011;50104;52.002;4.688;2023-02-03T22:29:53;13.30;;;3.15;;
47545;SDS011;50104;52.002;4.688;2023-02-03T22:34:55;16.80;;;3.38;;
47545;SDS011;50104;52.002;4.688;2023-02-03T22:39:56;14.10;;;3.10;;
47545;SDS011;50104;52.002;4.688;2023-02-03T22:44:57;18.02;;;2.83;;
47545;SDS011;50104;52.002;4.688;2023-02-03T22:49:58;19.63;;;2.72;;
47545;SDS011;50104;52.002;4.688;2023-02-03T22:54:59;11.98;;;2.20;;
47545;SDS011;50104;52.002;4.688;2023-02-03T23:00:00;14.98;;;2.85;;
47545;SDS011;50104;52.002;4.688;2023-02-03T23:05:00;28.55;;;3.13;;
47545;SDS011;50104;52.002;4.688;2023-02-03T23:10:09;20.90;;;2.95;;
47545;SDS011;50104;52.002;4.688;2023-02-03T23:15:23;16.13;;;3.08;;
47545;SDS011;50104;52.002;4.688;2023-02-03T23:20:44;18.88;;;3.63;;
47545;SDS011;50104;52.002;4.688;2023-02-03T23:25:45;20.55;;;3.25;;
47545;SDS011;50104;52.002;4.688;2023-02-03T23:30:56;13.23;;;2.40;;
47545;SDS011;50104;52.002;4.688;2023-02-03T23:41:33;14.80;;;2.28;;
47545;SDS011;50104;52.002;4.688;2023-02-03T23:46:49;16.92;;;2.47;;
47545;SDS011;50104;52.002;4.688;2023-02-03T23:52:00;18.92;;;2.90;;
47545;SDS011;50104;52.002;4.688;2023-02-03T23:57:02;19.85;;;3.17;;
